Time;durP1;ratioP1;P1;durP2;ratioP2;P2;SDS_P1;SDS_P2;PMS_P1;PMS_P2;Temp;Humidity;BMP_temperature;BMP_pressure;BME280_temperature;BME280_humidity;BME280_pressure;Samples;Min_cycle;Max_cycle;Signal;HPM_P1;HPM_P2
2022/03/05 00:02:13;;;;;;;20.70;11.67;;;;;;;;;;4990426;28;20667;-77
2022/03/05 00:04:40;;;;;;;22.50;12.40;;;;;;;;;;4990334;28;20214;-75
2022/03/05 00:07:07;;;;;;;18.50;10.47;;;;;;;;;;4972850;28;20222;-76
2022/03/05 00:09:33;;;;;;;18.17;10.13;;;;;;;;;;4988840;28;20198;-78
2022/03/05 00:11:59;;;;;;;17.50;10.33;;;;;;;;;;4994147;28;20667;-78
2022/03/05 00:14:26;;;;;;;18.87;10.77;;;;;;;;;;4991451;28;20584;-77
2022/03/05 00:16:52;;;;;;;18.27;11.00;;;;;;;;;;4973769;28;20214;-78
2022/03/05 00:19:19;;;;;;;18.33;10.90;;;;;;;;;;4990184;28;20217;-74
2022/03/05 00:21:46;;;;;;;19.37;10.70;;;;;;;;;;4990785;28;20195;-77
2022/03/05 00:24:12;;;;;;;18.73;10.53;;;;;;;;;;4993065;28;20191;-77
2022/03/05 00:26:38;;;;;;;19.23;11.60;;;;;;;;;;4995148;28;20202;-78
2022/03/05 00:29:05;;;;;;;17.53;10.53;;;;;;;;;;4995107;28;20265;-74
2022/03/05 00:31:31;;;;;;;19.37;11.07;;;;;;;;;;4994396;28;20218;-76
2022/03/05 00:33:57;;;;;;;17.67;10.63;;;;;;;;;;4994278;28;20183;-76
2022/03/05 00:36:24;;;;;;;17.27;10.67;;;;;;;;;;4996175;28;20718;-77
2022/03/05 00:38:50;;;;;;;16.90;10.43;;;;;;;;;;4996993;28;20215;-77
2022/03/05 00:41:16;;;;;;;17.73;10.53;;;;;;;;;;4993989;28;20705;-77
2022/03/05 00:43:42;;;;;;;16.87;9.87;;;;;;;;;;4994250;28;20199;-77
2022/03/05 00:46:09;;;;;;;19.47;11.63;;;;;;;;;;4996204;28;20266;-77
2022/03/05 00:48:35;;;;;;;16.30;9.73;;;;;;;;;;4994996;28;20215;-74
2022/03/05 00:51:01;;;;;;;18.00;10.47;;;;;;;;;;4995078;28;20246;-73
2022/03/05 00:53:27;;;;;;;19.70;10.50;;;;;;;;;;4994316;28;20797;-77
2022/03/05 00:55:53;;;;;;;18.13;10.83;;;;;;;;;;4993421;28;20237;-77
2022/03/05 00:58:19;;;;;;;18.10;10.43;;;;;;;;;;4991684;28;21273;-78
2022/03/05 01:00:46;;;;;;;17.67;9.73;;;;;;;;;;4996151;28;20187;-74
2022/03/05 01:03:12;;;;;;;19.33;11.43;;;;;;;;;;4992216;28;20183;-77
2022/03/05 01:05:38;;;;;;;16.90;10.43;;;;;;;;;;4995368;28;20191;-75
2022/03/05 01:08:04;;;;;;;18.63;11.27;;;;;;;;;;5003331;28;20366;-78
2022/03/05 01:10:31;;;;;;;19.07;10.30;;;;;;;;;;4998351;28;20203;-77
2022/03/05 01:12:57;;;;;;;17.43;9.90;;;;;;;;;;4994589;28;20217;-78
2022/03/05 01:15:23;;;;;;;18.33;10.77;;;;;;;;;;4996539;28;20216;-77
2022/03/05 01:17:49;;;;;;;17.33;10.60;;;;;;;;;;4996140;28;20210;-77
2022/03/05 01:20:15;;;;;;;19.13;11.23;;;;;;;;;;4995778;28;20217;-78
2022/03/05 01:22:41;;;;;;;17.07;10.33;;;;;;;;;;4992414;28;20219;-78
2022/03/05 01:25:08;;;;;;;20.17;10.93;;;;;;;;;;4995466;28;20187;-77
2022/03/05 01:27:34;;;;;;;20.93;11.37;;;;;;;;;;4994285;28;20375;-77
2022/03/05 01:30:00;;;;;;;18.03;10.63;;;;;;;;;;4992801;28;20187;-74
2022/03/05 01:32:26;;;;;;;16.60;10.27;;;;;;;;;;4993528;28;20695;-77
2022/03/05 01:34:52;;;;;;;16.70;10.80;;;;;;;;;;4993476;28;20570;-77
2022/03/05 01:37:19;;;;;;;18.80;11.00;;;;;;;;;;4993499;28;20272;-78
2022/03/05 01:39:45;;;;;;;19.57;11.20;;;;;;;;;;4976669;28;20249;-75
2022/03/05 01:42:12;;;;;;;17.33;10.67;;;;;;;;;;4992221;28;20669;-77
2022/03/05 01:44:38;;;;;;;17.77;10.57;;;;;;;;;;4995040;28;20199;-77
2022/03/05 01:47:05;;;;;;;18.57;10.97;;;;;;;;;;4993558;28;20204;-77
2022/03/05 01:49:32;;;;;;;16.00;10.43;;;;;;;;;;4993547;28;20318;-77
2022/03/05 01:51:58;;;;;;;15.87;10.20;;;;;;;;;;4993697;28;20194;-76
2022/03/05 01:54:25;;;;;;;17.07;10.33;;;;;;;;;;4994209;28;23655;-76
2022/03/05 01:56:52;;;;;;;17.43;10.83;;;;;;;;;;4992148;28;20223;-76
2022/03/05 01:59:18;;;;;;;17.73;9.80;;;;;;;;;;4994185;28;20210;-76
2022/03/05 02:01:44;;;;;;;15.97;10.23;;;;;;;;;;4994012;28;20213;-76
2022/03/05 02:04:10;;;;;;;17.67;10.10;;;;;;;;;;4993408;28;20275;-75
2022/03/05 02:06:36;;;;;;;17.03;10.50;;;;;;;;;;4996600;28;20959;-76
2022/03/05 02:09:03;;;;;;;18.87;10.93;;;;;;;;;;4993691;28;20195;-76
2022/03/05 02:11:29;;;;;;;19.07;11.17;;;;;;;;;;4994845;28;20195;-76
2022/03/05 02:13:56;;;;;;;16.27;10.43;;;;;;;;;;4993549;28;20274;-77
2022/03/05 02:16:23;;;;;;;18.53;11.17;;;;;;;;;;4995699;28;20233;-77
2022/03/05 02:18:50;;;;;;;19.00;10.17;;;;;;;;;;4992863;28;20673;-76
2022/03/05 02:21:16;;;;;;;18.60;10.67;;;;;;;;;;4994781;28;21059;-77
2022/03/05 02:23:43;;;;;;;17.17;10.80;;;;;;;;;;4991772;28;20184;-76
2022/03/05 02:26:09;;;;;;;17.80;10.60;;;;;;;;;;4991537;28;20180;-77
2022/03/05 02:28:36;;;;;;;17.93;10.50;;;;;;;;;;4991465;28;20207;-77
2022/03/05 02:31:03;;;;;;;18.57;10.37;;;;;;;;;;4976977;28;20250;-77
2022/03/05 02:33:29;;;;;;;17.83;10.37;;;;;;;;;;4992506;28;20360;-76
2022/03/05 02:35:55;;;;;;;16.10;9.70;;;;;;;;;;4994226;28;20241;-76
2022/03/05 02:38:23;;;;;;;17.63;10.53;;;;;;;;;;4991581;28;20325;-77
2022/03/05 02:40:50;;;;;;;18.07;10.27;;;;;;;;;;4993937;28;20263;-77
2022/03/05 02:43:17;;;;;;;16.83;10.50;;;;;;;;;;4992145;28;20183;-77
2022/03/05 02:45:44;;;;;;;17.60;10.97;;;;;;;;;;4995003;28;20179;-76
2022/03/05 02:48:11;;;;;;;15.73;10.13;;;;;;;;;;4985702;28;20690;-77
2022/03/05 02:50:37;;;;;;;19.17;10.97;;;;;;;;;;4993700;28;20187;-77
2022/03/05 02:53:03;;;;;;;17.43;10.03;;;;;;;;;;4993301;28;20183;-76
2022/03/05 02:55:30;;;;;;;16.73;10.73;;;;;;;;;;4992456;28;20265;-77
2022/03/05 02:57:57;;;;;;;16.30;10.63;;;;;;;;;;4993280;28;20322;-75
2022/03/05 03:00:24;;;;;;;18.00;10.93;;;;;;;;;;4993163;28;20295;-75
2022/03/05 03:02:51;;;;;;;18.50;11.00;;;;;;;;;;4993163;28;20189;-77
2022/03/05 03:05:17;;;;;;;16.50;10.27;;;;;;;;;;4993727;28;21162;-76
2022/03/05 03:07:44;;;;;;;16.53;10.10;;;;;;;;;;4993810;28;21978;-77
2022/03/05 03:10:12;;;;;;;16.23;10.20;;;;;;;;;;4987512;28;20278;-76
2022/03/05 03:12:39;;;;;;;18.27;10.53;;;;;;;;;;4995364;28;20237;-77
2022/03/05 03:15:06;;;;;;;18.83;10.67;;;;;;;;;;4998492;28;20594;-77
2022/03/05 03:17:47;;;;;;;17.53;10.93;;;;;;;;;;4991413;28;20318;-76
2022/03/05 03:20:14;;;;;;;17.90;11.20;;;;;;;;;;5007363;28;20264;-77
2022/03/05 03:22:41;;;;;;;18.77;11.07;;;;;;;;;;5005171;28;20190;-77
2022/03/05 03:25:07;;;;;;;16.63;9.90;;;;;;;;;;5008056;28;20198;-77
2022/03/05 03:27:35;;;;;;;16.60;9.67;;;;;;;;;;5004583;28;20273;-77
2022/03/05 03:30:01;;;;;;;17.87;10.47;;;;;;;;;;4998670;28;20188;-76
2022/03/05 03:32:27;;;;;;;17.07;10.53;;;;;;;;;;5006455;28;20197;-76
2022/03/05 03:34:53;;;;;;;18.13;11.03;;;;;;;;;;5002873;28;20342;-76
2022/03/05 03:37:19;;;;;;;16.83;11.13;;;;;;;;;;5004171;28;20285;-76
2022/03/05 03:39:45;;;;;;;17.63;10.43;;;;;;;;;;5006635;28;20219;-76
2022/03/05 03:42:11;;;;;;;19.23;10.80;;;;;;;;;;5005149;28;20183;-76
2022/03/05 03:44:37;;;;;;;20.60;10.97;;;;;;;;;;5005825;28;20195;-77
2022/03/05 03:47:06;;;;;;;17.03;10.30;;;;;;;;;;5007688;28;20222;-77
2022/03/05 03:49:32;;;;;;;15.73;10.43;;;;;;;;;;5007556;28;20194;-77
2022/03/05 03:51:58;;;;;;;17.90;10.83;;;;;;;;;;5003371;28;20603;-77
2022/03/05 03:54:24;;;;;;;17.33;9.77;;;;;;;;;;5004075;28;20535;-77
2022/03/05 03:56:50;;;;;;;19.37;10.30;;;;;;;;;;5004799;28;20693;-76
2022/03/05 03:59:17;;;;;;;17.60;10.57;;;;;;;;;;5014725;28;20589;-76
2022/03/05 04:01:43;;;;;;;17.83;10.37;;;;;;;;;;5003485;28;20183;-77
2022/03/05 04:04:09;;;;;;;17.43;11.17;;;;;;;;;;5003333;28;20198;-77
2022/03/05 04:09:20;;;;;;;20.40;11.07;;;;;;;;;;5008387;28;20187;-76
2022/03/05 04:11:46;;;;;;;19.67;11.30;;;;;;;;;;4999390;28;20554;-76
2022/03/05 04:14:12;;;;;;;17.40;10.87;;;;;;;;;;5001949;28;20202;-77
2022/03/05 04:16:38;;;;;;;18.50;10.90;;;;;;;;;;5000073;28;20218;-77
2022/03/05 04:19:05;;;;;;;17.40;10.50;;;;;;;;;;4995896;28;20207;-77
2022/03/05 04:21:31;;;;;;;19.90;11.23;;;;;;;;;;5004129;28;20655;-77
2022/03/05 04:23:57;;;;;;;20.90;10.90;;;;;;;;;;5002563;28;20214;-76
2022/03/05 04:26:24;;;;;;;19.03;11.10;;;;;;;;;;5000450;28;20195;-77
2022/03/05 04:28:50;;;;;;;17.47;10.57;;;;;;;;;;5007735;28;20969;-76
2022/03/05 04:31:16;;;;;;;20.53;11.73;;;;;;;;;;5002096;28;20187;-77
2022/03/05 04:33:42;;;;;;;20.53;12.00;;;;;;;;;;5004540;28;20426;-77
2022/03/05 04:36:08;;;;;;;18.03;11.73;;;;;;;;;;5003949;28;20190;-76
2022/03/05 04:38:35;;;;;;;17.37;10.97;;;;;;;;;;5005028;28;20693;-76
2022/03/05 04:41:01;;;;;;;19.70;11.23;;;;;;;;;;5005559;28;20187;-77
2022/03/05 04:43:29;;;;;;;18.10;10.70;;;;;;;;;;5009313;28;20194;-77
2022/03/05 04:45:55;;;;;;;21.70;11.67;;;;;;;;;;5006487;28;20938;-77
2022/03/05 04:48:21;;;;;;;21.10;12.27;;;;;;;;;;5005544;28;20215;-77
2022/03/05 04:50:48;;;;;;;19.50;11.30;;;;;;;;;;5005035;28;20179;-76
2022/03/05 04:53:15;;;;;;;20.13;11.97;;;;;;;;;;5002197;28;20179;-77
2022/03/05 04:55:41;;;;;;;20.47;12.00;;;;;;;;;;5004914;28;20183;-77
2022/03/05 04:58:08;;;;;;;19.47;11.87;;;;;;;;;;5005111;28;20261;-76
2022/03/05 05:00:35;;;;;;;19.50;11.87;;;;;;;;;;4983912;28;21069;-77
2022/03/05 05:03:01;;;;;;;22.33;12.60;;;;;;;;;;5000714;28;20266;-77
2022/03/05 05:05:27;;;;;;;21.07;12.10;;;;;;;;;;4998748;28;20184;-77
2022/03/05 05:07:53;;;;;;;22.03;12.27;;;;;;;;;;5007034;28;20310;-77
2022/03/05 05:10:19;;;;;;;21.23;12.87;;;;;;;;;;5006574;28;20187;-77
2022/03/05 05:12:45;;;;;;;20.20;11.93;;;;;;;;;;5010750;28;20663;-77
2022/03/05 05:15:12;;;;;;;21.53;13.10;;;;;;;;;;5010571;28;20187;-77
2022/03/05 05:17:38;;;;;;;22.27;13.83;;;;;;;;;;5006301;28;20208;-77
2022/03/05 05:20:05;;;;;;;20.03;11.90;;;;;;;;;;5008159;28;20265;-76
2022/03/05 05:22:32;;;;;;;19.40;11.47;;;;;;;;;;5009330;28;20180;-77
2022/03/05 05:24:59;;;;;;;20.93;12.00;;;;;;;;;;5004985;28;20179;-76
2022/03/05 05:27:26;;;;;;;17.27;11.13;;;;;;;;;;5003761;28;20605;-77
2022/03/05 05:29:52;;;;;;;19.27;11.53;;;;;;;;;;5001484;28;20642;-76
2022/03/05 05:32:19;;;;;;;21.73;11.87;;;;;;;;;;5000814;28;20188;-77
2022/03/05 05:34:46;;;;;;;21.77;12.80;;;;;;;;;;5006316;28;20261;-75
2022/03/05 05:37:13;;;;;;;20.07;11.60;;;;;;;;;;5004045;28;20607;-77
2022/03/05 05:39:39;;;;;;;20.33;11.67;;;;;;;;;;5009985;28;20222;-77
2022/03/05 05:42:05;;;;;;;20.73;12.40;;;;;;;;;;5001299;28;20887;-77
2022/03/05 05:44:31;;;;;;;20.90;12.63;;;;;;;;;;5009752;28;20287;-76
2022/03/05 05:46:58;;;;;;;22.10;12.53;;;;;;;;;;5009669;28;20215;-76
2022/03/05 05:49:24;;;;;;;19.20;12.47;;;;;;;;;;5005219;28;20191;-77
2022/03/05 05:51:50;;;;;;;21.80;12.00;;;;;;;;;;5007066;28;20190;-76
2022/03/05 05:54:16;;;;;;;20.30;12.40;;;;;;;;;;5010051;28;20187;-75
2022/03/05 05:56:42;;;;;;;22.77;12.70;;;;;;;;;;5007707;28;20211;-75
2022/03/05 05:59:09;;;;;;;19.70;12.07;;;;;;;;;;5002284;28;20211;-77
2022/03/05 06:01:35;;;;;;;22.47;12.80;;;;;;;;;;5006034;28;20588;-77
2022/03/05 06:04:02;;;;;;;20.07;12.50;;;;;;;;;;5011900;28;20183;-77
2022/03/05 06:06:28;;;;;;;23.20;13.67;;;;;;;;;;5005357;28;20179;-77
2022/03/05 06:08:54;;;;;;;24.30;13.30;;;;;;;;;;5009484;28;21192;-77
2022/03/05 06:11:20;;;;;;;25.47;14.10;;;;;;;;;;5008077;28;20191;-77
2022/03/05 06:13:47;;;;;;;23.37;14.50;;;;;;;;;;5007419;28;20215;-77
2022/03/05 06:16:14;;;;;;;22.20;13.43;;;;;;;;;;5004602;28;21033;-77
2022/03/05 06:18:40;;;;;;;26.30;14.33;;;;;;;;;;5006914;28;20557;-77
2022/03/05 06:21:06;;;;;;;24.87;13.90;;;;;;;;;;5004242;28;20247;-75
2022/03/05 06:23:33;;;;;;;24.93;14.00;;;;;;;;;;5010876;28;20438;-77
2022/03/05 06:25:59;;;;;;;24.10;13.57;;;;;;;;;;5006391;28;21003;-76
2022/03/05 06:28:25;;;;;;;24.43;13.80;;;;;;;;;;5006025;28;20215;-77
2022/03/05 06:30:52;;;;;;;23.30;14.13;;;;;;;;;;4997993;28;20685;-77
2022/03/05 06:33:19;;;;;;;21.93;12.93;;;;;;;;;;5005278;28;20601;-77
2022/03/05 06:35:46;;;;;;;25.87;14.73;;;;;;;;;;5000249;28;20183;-76
2022/03/05 06:38:12;;;;;;;23.70;14.30;;;;;;;;;;5006877;28;20207;-76
2022/03/05 06:40:38;;;;;;;26.97;14.07;;;;;;;;;;5005722;28;20207;-77
2022/03/05 06:43:04;;;;;;;23.87;14.20;;;;;;;;;;4996052;28;20183;-76
2022/03/05 06:45:31;;;;;;;23.33;13.93;;;;;;;;;;4994497;28;20270;-77
2022/03/05 06:47:57;;;;;;;20.33;12.90;;;;;;;;;;5001549;28;20205;-77
2022/03/05 06:50:24;;;;;;;23.63;12.93;;;;;;;;;;5001202;28;20270;-77
2022/03/05 06:52:50;;;;;;;21.50;12.80;;;;;;;;;;5004828;28;20198;-76
2022/03/05 06:55:16;;;;;;;24.70;13.37;;;;;;;;;;5006283;28;20198;-75
2022/03/05 06:57:43;;;;;;;21.90;13.70;;;;;;;;;;5003887;28;20211;-77
2022/03/05 07:00:10;;;;;;;21.67;13.00;;;;;;;;;;5017080;28;20207;-77
2022/03/05 07:02:36;;;;;;;21.93;13.27;;;;;;;;;;5007376;28;20195;-77
2022/03/05 07:05:03;;;;;;;22.40;13.17;;;;;;;;;;5005276;28;20505;-77
2022/03/05 07:07:29;;;;;;;20.30;12.57;;;;;;;;;;5007616;28;20223;-76
2022/03/05 07:09:55;;;;;;;20.67;12.70;;;;;;;;;;4999151;28;20187;-76
2022/03/05 07:12:21;;;;;;;22.20;12.97;;;;;;;;;;5005127;28;20249;-77
2022/03/05 07:14:49;;;;;;;21.63;12.60;;;;;;;;;;5006878;28;20753;-76
2022/03/05 07:17:18;;;;;;;20.80;13.30;;;;;;;;;;5005270;28;20198;-77
2022/03/05 07:19:44;;;;;;;24.93;15.20;;;;;;;;;;5003978;28;21160;-76
2022/03/05 07:22:11;;;;;;;24.73;15.27;;;;;;;;;;5005321;28;20183;-78
2022/03/05 07:24:38;;;;;;;23.13;14.50;;;;;;;;;;5006148;28;20552;-78
2022/03/05 07:27:04;;;;;;;22.40;13.70;;;;;;;;;;5004606;28;20198;-77
2022/03/05 07:29:30;;;;;;;23.63;14.10;;;;;;;;;;5001313;28;20298;-77
2022/03/05 07:31:56;;;;;;;19.77;12.67;;;;;;;;;;4998740;28;20613;-77
2022/03/05 07:34:22;;;;;;;22.23;13.57;;;;;;;;;;5008369;28;20191;-76
2022/03/05 07:36:48;;;;;;;24.30;14.67;;;;;;;;;;5003055;28;20302;-78
2022/03/05 07:39:14;;;;;;;21.77;13.90;;;;;;;;;;4999693;28;20230;-77
2022/03/05 07:41:41;;;;;;;23.00;13.93;;;;;;;;;;5004353;28;20198;-77
2022/03/05 07:44:09;;;;;;;25.67;14.60;;;;;;;;;;4993229;28;20257;-78
2022/03/05 07:46:38;;;;;;;24.80;14.53;;;;;;;;;;5008878;28;20275;-78
2022/03/05 07:49:05;;;;;;;21.90;14.27;;;;;;;;;;5003691;28;20191;-77
2022/03/05 07:51:31;;;;;;;24.33;14.00;;;;;;;;;;5000698;28;20199;-78
2022/03/05 07:53:57;;;;;;;23.10;13.77;;;;;;;;;;5003665;28;20183;-78
2022/03/05 07:56:23;;;;;;;21.27;14.23;;;;;;;;;;5001002;28;20195;-78
2022/03/05 07:58:49;;;;;;;21.93;14.13;;;;;;;;;;5003534;28;20219;-76
2022/03/05 08:01:16;;;;;;;20.23;13.63;;;;;;;;;;4995494;28;20187;-77
2022/03/05 08:03:42;;;;;;;21.57;13.67;;;;;;;;;;4999188;28;20183;-76
2022/03/05 08:06:08;;;;;;;23.30;13.40;;;;;;;;;;4994703;28;20186;-76
2022/03/05 08:08:35;;;;;;;22.53;13.83;;;;;;;;;;5001315;28;20210;-76
2022/03/05 08:11:02;;;;;;;24.63;14.53;;;;;;;;;;5001253;28;20194;-76
2022/03/05 08:13:29;;;;;;;20.13;12.90;;;;;;;;;;4978628;28;20743;-78
2022/03/05 08:15:55;;;;;;;21.13;13.50;;;;;;;;;;4997579;28;20186;-76
2022/03/05 08:18:22;;;;;;;22.27;13.50;;;;;;;;;;4999215;28;20248;-78
2022/03/05 08:20:48;;;;;;;19.93;13.37;;;;;;;;;;5000917;28;20225;-78
2022/03/05 08:23:14;;;;;;;22.90;14.60;;;;;;;;;;5000893;28;22180;-78
2022/03/05 08:25:41;;;;;;;22.10;13.80;;;;;;;;;;5001675;28;20179;-76
2022/03/05 08:28:07;;;;;;;20.10;13.43;;;;;;;;;;4994652;28;20791;-75
2022/03/05 08:30:33;;;;;;;20.47;13.13;;;;;;;;;;4997838;28;20187;-76
2022/03/05 08:32:59;;;;;;;22.97;14.80;;;;;;;;;;4999221;28;20191;-80
2022/03/05 08:35:26;;;;;;;24.47;14.57;;;;;;;;;;5003137;28;20280;-82
2022/03/05 08:37:52;;;;;;;22.67;13.73;;;;;;;;;;5006789;28;20655;-81
2022/03/05 08:40:20;;;;;;;22.73;14.50;;;;;;;;;;5003801;28;20210;-79
2022/03/05 08:42:48;;;;;;;24.63;14.70;;;;;;;;;;5003836;28;20171;-80
2022/03/05 08:45:15;;;;;;;23.70;14.53;;;;;;;;;;5008752;28;20175;-76
2022/03/05 08:47:41;;;;;;;23.33;15.43;;;;;;;;;;5002880;28;20218;-76
2022/03/05 08:50:08;;;;;;;25.67;16.40;;;;;;;;;;5004459;28;20183;-78
2022/03/05 08:52:37;;;;;;;25.70;15.77;;;;;;;;;;5009131;28;20214;-79
2022/03/05 08:55:04;;;;;;;26.27;16.00;;;;;;;;;;4977362;28;20659;-79
2022/03/05 08:57:31;;;;;;;28.60;16.30;;;;;;;;;;5009371;28;20218;-80
2022/03/05 08:59:57;;;;;;;22.47;15.53;;;;;;;;;;5007003;28;20207;-79
2022/03/05 09:02:23;;;;;;;23.43;15.23;;;;;;;;;;5004335;28;20202;-79
2022/03/05 09:04:49;;;;;;;23.30;14.70;;;;;;;;;;5007222;28;20253;-80
2022/03/05 09:07:16;;;;;;;23.60;14.73;;;;;;;;;;5011708;28;20215;-80
2022/03/05 09:09:42;;;;;;;23.03;14.43;;;;;;;;;;5009967;28;20210;-80
2022/03/05 09:12:08;;;;;;;22.07;14.93;;;;;;;;;;5011815;28;20190;-80
2022/03/05 09:14:34;;;;;;;24.23;15.53;;;;;;;;;;5011476;28;20270;-80
2022/03/05 09:17:00;;;;;;;22.83;14.97;;;;;;;;;;5009991;28;20238;-81
2022/03/05 09:19:27;;;;;;;24.13;15.33;;;;;;;;;;5009074;28;20209;-81
2022/03/05 09:21:53;;;;;;;23.00;14.80;;;;;;;;;;5014729;28;20186;-81
2022/03/05 09:24:19;;;;;;;23.70;15.43;;;;;;;;;;5011236;28;20757;-81
2022/03/05 09:26:46;;;;;;;24.03;14.13;;;;;;;;;;4991641;28;20294;-80
2022/03/05 09:29:12;;;;;;;23.13;14.50;;;;;;;;;;5009333;28;20171;-81
2022/03/05 09:31:39;;;;;;;22.13;13.90;;;;;;;;;;5009028;28;20187;-80
2022/03/05 09:34:06;;;;;;;22.03;14.30;;;;;;;;;;5009631;28;20201;-80
2022/03/05 09:36:32;;;;;;;21.30;14.13;;;;;;;;;;5007872;28;20219;-80
2022/03/05 09:38:58;;;;;;;20.13;12.97;;;;;;;;;;5011488;28;20215;-81
2022/03/05 09:41:25;;;;;;;21.87;14.37;;;;;;;;;;5010582;28;20190;-81
2022/03/05 09:43:51;;;;;;;22.03;14.20;;;;;;;;;;5008260;28;20190;-80
2022/03/05 09:46:22;;;;;;;22.90;14.80;;;;;;;;;;5009042;28;20233;-81
2022/03/05 09:48:50;;;;;;;20.90;13.13;;;;;;;;;;5024533;28;20179;-81
2022/03/05 09:51:17;;;;;;;21.07;13.67;;;;;;;;;;5010429;28;20211;-78
2022/03/05 09:53:44;;;;;;;20.33;12.63;;;;;;;;;;5011124;28;20184;-82
2022/03/05 09:56:10;;;;;;;18.10;12.53;;;;;;;;;;4989485;28;20229;-80
2022/03/05 09:58:37;;;;;;;18.27;12.43;;;;;;;;;;5005250;28;20211;-80
2022/03/05 10:01:04;;;;;;;17.23;11.23;;;;;;;;;;5006670;28;20210;-82
2022/03/05 10:03:30;;;;;;;17.43;11.30;;;;;;;;;;5005284;28;21773;-81
2022/03/05 10:06:19;;;;;;;22.53;12.73;;;;;;;;;;5005127;28;20183;-80
2022/03/05 10:08:46;;;;;;;18.67;11.63;;;;;;;;;;5004736;28;20202;-81
2022/03/05 10:11:12;;;;;;;16.80;11.57;;;;;;;;;;5004849;28;20194;-80
2022/03/05 10:13:40;;;;;;;19.00;12.40;;;;;;;;;;5003660;28;20187;-81
2022/03/05 10:16:28;;;;;;;15.83;10.83;;;;;;;;;;5005022;28;20222;-81
2022/03/05 10:18:55;;;;;;;17.30;12.10;;;;;;;;;;5002561;28;20236;-80
2022/03/05 10:21:29;;;;;;;17.37;11.77;;;;;;;;;;5002973;28;20187;-79
2022/03/05 10:24:09;;;;;;;17.70;12.40;;;;;;;;;;5002361;28;20185;-81
2022/03/05 10:26:52;;;;;;;16.17;11.30;;;;;;;;;;5010234;28;20296;-80
2022/03/05 10:29:23;;;;;;;16.87;10.07;;;;;;;;;;5020712;28;20214;-83
2022/03/05 10:32:16;;;;;;;15.77;10.67;;;;;;;;;;5011669;28;20199;-83
2022/03/05 10:34:45;;;;;;;14.77;9.60;;;;;;;;;;4993315;28;20222;-81
2022/03/05 10:37:11;;;;;;;13.47;8.70;;;;;;;;;;5011296;28;20879;-80
2022/03/05 10:39:38;;;;;;;13.70;8.70;;;;;;;;;;5013544;28;20206;-81
2022/03/05 10:42:26;;;;;;;11.63;7.70;;;;;;;;;;5004176;28;20865;-82
2022/03/05 10:45:00;;;;;;;11.10;7.10;;;;;;;;;;5005802;28;20171;-81
2022/03/05 10:47:26;;;;;;;8.47;6.10;;;;;;;;;;5003810;28;20287;-81
2022/03/05 10:49:53;;;;;;;8.97;5.93;;;;;;;;;;5001442;28;20317;-81
2022/03/05 10:52:19;;;;;;;7.27;5.60;;;;;;;;;;5012621;28;20287;-81
2022/03/05 10:54:45;;;;;;;7.63;5.80;;;;;;;;;;5013285;28;20579;-82
2022/03/05 10:57:13;;;;;;;9.10;6.47;;;;;;;;;;5014980;28;20223;-81
2022/03/05 10:59:43;;;;;;;7.80;5.97;;;;;;;;;;5009784;28;20265;-81
2022/03/05 11:02:14;;;;;;;8.37;6.27;;;;;;;;;;5008448;28;20262;-78
2022/03/05 11:04:42;;;;;;;9.93;6.97;;;;;;;;;;5020061;28;20187;-79
2022/03/05 11:07:09;;;;;;;11.53;7.30;;;;;;;;;;5007280;28;20271;-79
2022/03/05 11:09:36;;;;;;;9.50;7.03;;;;;;;;;;5010623;28;20226;-79
2022/03/05 11:12:03;;;;;;;11.70;7.10;;;;;;;;;;5004542;28;20187;-79
2022/03/05 11:14:29;;;;;;;9.90;7.23;;;;;;;;;;5000840;28;20230;-77
2022/03/05 11:16:56;;;;;;;10.63;7.23;;;;;;;;;;5002531;28;21071;-77
2022/03/05 11:19:24;;;;;;;10.33;6.90;;;;;;;;;;5004405;28;20211;-79
2022/03/05 11:21:50;;;;;;;9.23;7.00;;;;;;;;;;5005815;28;20602;-79
2022/03/05 11:24:18;;;;;;;10.30;7.07;;;;;;;;;;5003650;28;20229;-79
2022/03/05 11:26:47;;;;;;;9.73;7.53;;;;;;;;;;5004771;28;20265;-79
2022/03/05 11:29:16;;;;;;;9.87;7.63;;;;;;;;;;5006361;28;20195;-81
2022/03/05 11:31:42;;;;;;;8.77;6.77;;;;;;;;;;5007494;28;20191;-78
2022/03/05 11:34:17;;;;;;;9.40;7.00;;;;;;;;;;5002822;28;20190;-78
2022/03/05 11:36:44;;;;;;;8.97;6.43;;;;;;;;;;5004027;28;20215;-78
2022/03/05 11:39:36;;;;;;;9.53;6.70;;;;;;;;;;4985502;28;20235;-82
2022/03/05 11:42:08;;;;;;;9.10;6.53;;;;;;;;;;4999221;28;20190;-77
2022/03/05 11:44:40;;;;;;;9.97;6.53;;;;;;;;;;4999750;28;20555;-79
2022/03/05 11:47:21;;;;;;;11.50;7.20;;;;;;;;;;5002986;28;20910;-78
2022/03/05 11:49:58;;;;;;;8.70;6.70;;;;;;;;;;5006708;28;20748;-78
2022/03/05 11:52:41;;;;;;;8.80;6.50;;;;;;;;;;5004349;28;20200;-80
2022/03/05 11:55:41;;;;;;;9.60;6.77;;;;;;;;;;5006510;28;20195;-78
2022/03/05 11:58:09;;;;;;;10.93;7.03;;;;;;;;;;5002493;28;20231;-79
2022/03/05 12:00:36;;;;;;;9.73;7.00;;;;;;;;;;4999725;28;20285;-79
2022/03/05 12:03:03;;;;;;;8.87;6.60;;;;;;;;;;5002237;28;20217;-78
2022/03/05 12:05:38;;;;;;;8.90;6.67;;;;;;;;;;5006080;28;20187;-77
2022/03/05 12:08:24;;;;;;;9.63;6.47;;;;;;;;;;5003103;28;20310;-77
2022/03/05 12:11:09;;;;;;;8.13;6.40;;;;;;;;;;5002879;28;20265;-77
2022/03/05 12:13:42;;;;;;;9.17;6.77;;;;;;;;;;5002872;28;20191;-79
2022/03/05 12:16:16;;;;;;;9.20;6.97;;;;;;;;;;4999818;28;20187;-79
2022/03/05 12:18:44;;;;;;;9.77;6.90;;;;;;;;;;5002706;28;20602;-79
2022/03/05 12:21:10;;;;;;;9.40;7.03;;;;;;;;;;5005469;28;20187;-78
2022/03/05 12:23:36;;;;;;;10.40;6.83;;;;;;;;;;5010088;28;20180;-78
2022/03/05 12:26:07;;;;;;;8.90;7.00;;;;;;;;;;5009640;28;20322;-76
2022/03/05 12:28:44;;;;;;;8.87;6.83;;;;;;;;;;5011398;28;20251;-76
2022/03/05 12:31:16;;;;;;;10.13;7.87;;;;;;;;;;5011623;28;20201;-76
2022/03/05 12:33:45;;;;;;;9.20;7.27;;;;;;;;;;5007905;28;21090;-76
2022/03/05 12:36:15;;;;;;;9.47;7.67;;;;;;;;;;5011062;28;20190;-76
2022/03/05 12:38:41;;;;;;;9.90;7.03;;;;;;;;;;5002916;28;20296;-77
2022/03/05 12:41:07;;;;;;;9.03;7.47;;;;;;;;;;5003201;28;20187;-77
2022/03/05 12:43:33;;;;;;;8.70;7.30;;;;;;;;;;5005644;28;20215;-76
2022/03/05 12:45:59;;;;;;;8.43;7.50;;;;;;;;;;5008849;28;20183;-77
2022/03/05 12:48:29;;;;;;;9.07;7.87;;;;;;;;;;5006521;28;20230;-76
2022/03/05 12:50:56;;;;;;;10.43;8.07;;;;;;;;;;5002470;28;20266;-76
2022/03/05 12:53:24;;;;;;;11.00;8.00;;;;;;;;;;5005963;28;20198;-76
2022/03/05 12:55:51;;;;;;;9.13;7.70;;;;;;;;;;5007648;28;20583;-77
2022/03/05 12:58:20;;;;;;;9.57;7.93;;;;;;;;;;5006107;28;20196;-76
2022/03/05 13:00:48;;;;;;;9.23;7.00;;;;;;;;;;5007023;28;20225;-76
2022/03/05 13:03:15;;;;;;;10.43;8.20;;;;;;;;;;5006473;28;20502;-76
2022/03/05 13:05:42;;;;;;;9.50;7.77;;;;;;;;;;5004312;28;20191;-74
2022/03/05 13:08:16;;;;;;;9.87;8.10;;;;;;;;;;5004009;28;20223;-77
2022/03/05 13:10:42;;;;;;;9.40;8.00;;;;;;;;;;5004714;28;20187;-76
2022/03/05 13:13:11;;;;;;;8.77;7.43;;;;;;;;;;5006130;28;20210;-75
2022/03/05 13:15:37;;;;;;;8.77;7.80;;;;;;;;;;5005464;28;20187;-75
2022/03/05 13:18:08;;;;;;;9.20;7.57;;;;;;;;;;5007407;28;20212;-75
2022/03/05 13:20:34;;;;;;;9.60;7.97;;;;;;;;;;5008336;28;20684;-75
2022/03/05 13:23:00;;;;;;;8.73;7.23;;;;;;;;;;5007672;28;20241;-75
2022/03/05 13:25:30;;;;;;;7.90;7.10;;;;;;;;;;5005058;28;20627;-76
2022/03/05 13:27:57;;;;;;;10.93;8.23;;;;;;;;;;5006283;28;20234;-76
2022/03/05 13:30:26;;;;;;;8.40;7.60;;;;;;;;;;5006570;28;20198;-76
2022/03/05 13:32:53;;;;;;;9.77;7.37;;;;;;;;;;5007618;28;20183;-76
2022/03/05 13:35:20;;;;;;;8.33;7.33;;;;;;;;;;5010010;28;20191;-76
2022/03/05 13:37:46;;;;;;;8.20;7.40;;;;;;;;;;5009186;28;20202;-76
2022/03/05 13:40:14;;;;;;;8.37;7.50;;;;;;;;;;5008552;28;20261;-76
2022/03/05 13:42:40;;;;;;;8.40;7.50;;;;;;;;;;5007526;28;20685;-76
2022/03/05 13:45:08;;;;;;;8.17;7.37;;;;;;;;;;5009394;28;20556;-76
2022/03/05 13:47:41;;;;;;;8.00;7.20;;;;;;;;;;4986883;28;20302;-77
2022/03/05 13:50:08;;;;;;;10.30;9.30;;;;;;;;;;5010938;28;20202;-76
2022/03/05 13:52:34;;;;;;;8.17;7.37;;;;;;;;;;5007854;28;20258;-76
2022/03/05 13:55:17;;;;;;;7.87;6.57;;;;;;;;;;5010025;28;20187;-77
2022/03/05 13:57:47;;;;;;;7.90;7.10;;;;;;;;;;5008361;28;20236;-76
2022/03/05 14:00:20;;;;;;;8.30;7.40;;;;;;;;;;5007083;28;20227;-76
2022/03/05 14:02:46;;;;;;;8.60;7.70;;;;;;;;;;5009100;28;20194;-76
2022/03/05 14:05:14;;;;;;;9.07;7.37;;;;;;;;;;5009164;28;20176;-76
2022/03/05 14:07:44;;;;;;;8.27;7.30;;;;;;;;;;5008473;28;20694;-76
2022/03/05 14:10:12;;;;;;;8.70;7.80;;;;;;;;;;5006659;28;20270;-76
2022/03/05 14:12:38;;;;;;;8.00;7.20;;;;;;;;;;5005812;28;20184;-76
2022/03/05 14:15:08;;;;;;;7.80;7.00;;;;;;;;;;5005666;28;20187;-76
2022/03/05 14:17:39;;;;;;;7.33;6.57;;;;;;;;;;5007737;28;20333;-76
2022/03/05 14:20:14;;;;;;;7.80;7.10;;;;;;;;;;5009004;28;20277;-76
2022/03/05 14:22:41;;;;;;;8.37;7.47;;;;;;;;;;5002768;28;20713;-76
2022/03/05 14:25:18;;;;;;;9.40;7.53;;;;;;;;;;5006853;28;21461;-76
2022/03/05 14:27:45;;;;;;;8.13;7.30;;;;;;;;;;5004312;28;20207;-76
2022/03/05 14:30:12;;;;;;;7.90;7.07;;;;;;;;;;5005790;28;20191;-78